Cherokee — 9HBC7 — position and weather

sailwx.info

Track history (hours):
 
Tides and Currents Weather Stations Pressure Air Temp Water Temp Dewpoint Dewpoint Depression Visibility Wind Speed Wind Dir Waves Ship Positions

Cherokee

Last reported at 2015-Apr-18 17:22 UTC. Time now 2015-Apr-19 12:37 UTC.
Position N 44°54' E 036°31'.

Length 139 m; draft 2.9 m.

Type: Cargo ship. MMSI: 215059000.

Date/timePositionNaut miles runAvg speedWind from/ knotsBaromVisibWave heightAir tempDewpointWater temp
2015-Apr-18 17:22N 44°54' E 036°31'7 9.2
2015-Apr-18 16:34N 44°49' E 036°24'9 9.1
2015-Apr-18 15:33N 44°42' E 036°14'9 8.9
2015-Apr-18 14:34N 44°36' E 036°05'9 9.0
2015-Apr-18 13:34N 44°30' E 035°56'9 9.0
2015-Apr-18 12:33N 44°24' E 035°46'9 9.3
2015-Apr-18 11:33N 44°19' E 035°35'10 9.6
2015-Apr-18 10:34N 44°14' E 035°24'10 9.5
2015-Apr-18 09:33N 44°09' E 035°13'13 9.2
2015-Apr-18 08:08N 44°02' E 034°58'6 9.4
2015-Apr-18 07:31N 43°58' E 034°51'10 9.4
2015-Apr-18 06:28N 43°53' E 034°39'297 9.3
2015-Apr-16 22:32N 41°09' E 029°03'0 0.0
2015-Apr-16 21:26N 41°09' E 029°03'0 0.0
2015-Apr-16 19:13N 41°09' E 029°03'21 0.6
2015-Apr-15 09:19N 40°50' E 029°13'0 0.1
2015-Apr-15 08:25N 40°50' E 029°13'0 0.0
2015-Apr-15 07:10N 40°50' E 029°13'0 0.0
2015-Apr-15 06:28N 40°50' E 029°13'0 0.0
2015-Apr-15 05:33N 40°50' E 029°13'0 0.0
2015-Apr-15 03:22N 40°50' E 029°13'0 0.0
2015-Apr-15 02:28N 40°50' E 029°13'0 0.0
2015-Apr-15 01:28N 40°50' E 029°13'0 0.0
2015-Apr-15 00:28N 40°50' E 029°13'0 0.0
2015-Apr-14 23:28N 40°50' E 029°13'0 0.0
2015-Apr-14 22:33N 40°50' E 029°13'0 0.0
2015-Apr-14 21:11N 40°50' E 029°13'0 0.0
2015-Apr-14 20:28N 40°50' E 029°13'0 0.1
2015-Apr-14 19:33N 40°50' E 029°13'0 0.0
2015-Apr-14 18:33N 40°50' E 029°13'0 0.0
2015-Apr-14 17:33N 40°50' E 029°13'0 0.0
2015-Apr-14 16:27N 40°50' E 029°13'0 0.0
2015-Apr-14 15:23N 40°50' E 029°13'0 0.0
2015-Apr-14 14:29N 40°50' E 029°13'0 0.1
2015-Apr-14 13:22N 40°50' E 029°13'0 0.5
2015-Apr-14 12:34N 40°50' E 029°12'3 3.5
2015-Apr-14 11:33N 40°51' E 029°17'  
Track history (hours):
 
Tides and Currents Weather Stations Pressure Air Temp Water Temp Dewpoint Dewpoint Depression Visibility Wind Speed Wind Dir Waves Ship Positions

Cherokee

Last reported at 2015-Apr-18 17:22 UTC. Time now 2015-Apr-19 12:37 UTC.
Position N 44°54' E 036°31'.

Length 139 m; draft 2.9 m.

Type: Cargo ship. MMSI: 215059000.

Date/timePositionNaut miles runAvg speedWind from/ knotsBaromVisibWave heightAir tempDewpointWater temp
2015-Apr-18 17:22N 44°54' E 036°31'7 9.2
2015-Apr-18 16:34N 44°49' E 036°24'9 9.1
2015-Apr-18 15:33N 44°42' E 036°14'9 8.9
2015-Apr-18 14:34N 44°36' E 036°05'9 9.0
2015-Apr-18 13:34N 44°30' E 035°56'9 9.0
2015-Apr-18 12:33N 44°24' E 035°46'9 9.3
2015-Apr-18 11:33N 44°19' E 035°35'10 9.6
2015-Apr-18 10:34N 44°14' E 035°24'10 9.5
2015-Apr-18 09:33N 44°09' E 035°13'13 9.2
2015-Apr-18 08:08N 44°02' E 034°58'6 9.4
2015-Apr-18 07:31N 43°58' E 034°51'10 9.4
2015-Apr-18 06:28N 43°53' E 034°39'297 9.3
2015-Apr-16 22:32N 41°09' E 029°03'0 0.0
2015-Apr-16 21:26N 41°09' E 029°03'0 0.0
2015-Apr-16 19:13N 41°09' E 029°03'21 0.6
2015-Apr-15 09:19N 40°50' E 029°13'0 0.1
2015-Apr-15 08:25N 40°50' E 029°13'0 0.0
2015-Apr-15 07:10N 40°50' E 029°13'0 0.0
2015-Apr-15 06:28N 40°50' E 029°13'0 0.0
2015-Apr-15 05:33N 40°50' E 029°13'0 0.0
2015-Apr-15 03:22N 40°50' E 029°13'0 0.0
2015-Apr-15 02:28N 40°50' E 029°13'0 0.0
2015-Apr-15 01:28N 40°50' E 029°13'0 0.0
2015-Apr-15 00:28N 40°50' E 029°13'0 0.0
2015-Apr-14 23:28N 40°50' E 029°13'0 0.0
2015-Apr-14 22:33N 40°50' E 029°13'0 0.0
2015-Apr-14 21:11N 40°50' E 029°13'0 0.0
2015-Apr-14 20:28N 40°50' E 029°13'0 0.1
2015-Apr-14 19:33N 40°50' E 029°13'0 0.0
2015-Apr-14 18:33N 40°50' E 029°13'0 0.0
2015-Apr-14 17:33N 40°50' E 029°13'0 0.0
2015-Apr-14 16:27N 40°50' E 029°13'0 0.0
2015-Apr-14 15:23N 40°50' E 029°13'0 0.0
2015-Apr-14 14:29N 40°50' E 029°13'0 0.1
2015-Apr-14 13:22N 40°50' E 029°13'0 0.5
2015-Apr-14 12:34N 40°50' E 029°12'3 3.5
2015-Apr-14 11:33N 40°51' E 029°17'  

Dump ship's entire track history